Time;durP1;ratioP1;P1;durP2;ratioP2;P2;SDS_P1;SDS_P2;PMS_P1;PMS_P2;Temp;Humidity;BMP_temperature;BMP_pressure;BME280_temperature;BME280_humidity;BME280_pressure;Samples;Min_cycle;Max_cycle;Signal;HPM_P1;HPM_P2
2023/09/22 00:01:49;;;;;;;26.80;24.97;;;;;;;;;;5015341;28;20453;-87
2023/09/22 00:04:16;;;;;;;27.30;25.80;;;;;;;;;;5015486;28;20953;-87
2023/09/22 00:06:43;;;;;;;27.00;25.50;;;;;;;;;;5016156;28;20460;-86
2023/09/22 00:09:12;;;;;;;27.90;26.30;;;;;;;;;;5015296;28;20419;-86
2023/09/22 00:11:40;;;;;;;27.20;25.50;;;;;;;;;;5014849;28;20977;-85
2023/09/22 00:14:08;;;;;;;27.30;25.67;;;;;;;;;;5015688;28;20453;-87
2023/09/22 00:16:35;;;;;;;27.70;26.20;;;;;;;;;;5014914;28;20460;-86
2023/09/22 00:19:05;;;;;;;27.13;25.63;;;;;;;;;;5017592;28;20453;-87
2023/09/22 00:21:32;;;;;;;27.07;25.57;;;;;;;;;;5017367;28;20440;-86
2023/09/22 00:23:59;;;;;;;27.80;26.20;;;;;;;;;;5017207;28;20468;-86
2023/09/22 00:26:26;;;;;;;26.63;25.13;;;;;;;;;;5016002;28;20438;-86
2023/09/22 00:28:56;;;;;;;27.30;25.70;;;;;;;;;;5015393;28;20464;-87
2023/09/22 00:31:23;;;;;;;25.40;23.90;;;;;;;;;;5018264;28;21276;-86
2023/09/22 00:33:51;;;;;;;27.10;25.70;;;;;;;;;;5018931;28;20848;-87
2023/09/22 00:36:18;;;;;;;26.80;25.20;;;;;;;;;;5018151;28;20477;-86
2023/09/22 00:38:45;;;;;;;27.07;25.33;;;;;;;;;;5018498;28;20513;-87
2023/09/22 00:41:12;;;;;;;26.23;24.63;;;;;;;;;;5018887;28;20448;-87
2023/09/22 00:43:40;;;;;;;26.07;24.47;;;;;;;;;;5018583;28;20551;-87
2023/09/22 00:46:11;;;;;;;24.73;23.50;;;;;;;;;;5018623;28;20786;-87
2023/09/22 00:48:38;;;;;;;25.07;23.77;;;;;;;;;;5018958;28;20422;-87
2023/09/22 00:51:05;;;;;;;25.97;24.57;;;;;;;;;;5018377;28;20989;-87
2023/09/22 00:53:34;;;;;;;24.50;23.30;;;;;;;;;;5018861;28;20522;-87
2023/09/22 00:56:02;;;;;;;25.03;23.53;;;;;;;;;;5018333;28;20455;-86
2023/09/22 00:58:29;;;;;;;24.93;23.50;;;;;;;;;;5018073;28;20446;-87
2023/09/22 01:00:58;;;;;;;24.83;23.53;;;;;;;;;;5017758;28;20419;-87
2023/09/22 01:03:27;;;;;;;24.97;23.67;;;;;;;;;;5017687;28;20530;-87
2023/09/22 01:05:54;;;;;;;23.50;22.30;;;;;;;;;;5016808;28;20437;-87
2023/09/22 01:08:21;;;;;;;24.37;23.13;;;;;;;;;;5017229;28;20430;-87
2023/09/22 01:11:02;;;;;;;24.10;22.70;;;;;;;;;;5015847;28;20462;-87
2023/09/22 01:13:29;;;;;;;23.80;22.50;;;;;;;;;;5016643;28;20509;-88
2023/09/22 01:15:58;;;;;;;25.57;23.60;;;;;;;;;;5016712;28;20547;-87
2023/09/22 01:18:27;;;;;;;24.73;23.43;;;;;;;;;;5017137;28;20812;-87
2023/09/22 01:20:57;;;;;;;24.20;22.87;;;;;;;;;;5017445;28;20519;-87
2023/09/22 01:23:25;;;;;;;23.00;21.70;;;;;;;;;;5017039;28;20485;-87
2023/09/22 01:25:52;;;;;;;23.53;22.33;;;;;;;;;;5016367;28;20452;-88
2023/09/22 01:28:19;;;;;;;23.40;22.20;;;;;;;;;;5017017;28;20450;-87
2023/09/22 01:30:47;;;;;;;23.30;21.97;;;;;;;;;;5016819;28;20799;-87
2023/09/22 01:33:14;;;;;;;22.60;21.40;;;;;;;;;;5016040;28;20501;-87
2023/09/22 01:35:42;;;;;;;22.80;21.67;;;;;;;;;;5016757;28;20436;-87
2023/09/22 01:38:11;;;;;;;22.43;21.10;;;;;;;;;;5017681;28;20518;-86
2023/09/22 01:40:40;;;;;;;22.90;21.70;;;;;;;;;;5018999;28;20453;-86
2023/09/22 01:43:07;;;;;;;22.23;21.13;;;;;;;;;;5017930;28;20449;-87
2023/09/22 01:45:34;;;;;;;21.77;20.67;;;;;;;;;;5017059;28;20534;-87
2023/09/22 01:48:01;;;;;;;21.40;20.30;;;;;;;;;;5017945;28;20434;-87
2023/09/22 01:50:28;;;;;;;21.80;20.30;;;;;;;;;;5017042;28;20488;-86
2023/09/22 01:52:55;;;;;;;22.10;20.90;;;;;;;;;;5019285;28;20522;-85
2023/09/22 01:55:22;;;;;;;21.40;20.17;;;;;;;;;;5019735;28;20523;-86
2023/09/22 01:57:51;;;;;;;21.67;20.67;;;;;;;;;;5019050;28;20928;-86
2023/09/22 02:00:18;;;;;;;21.77;20.67;;;;;;;;;;5019875;28;20442;-86
2023/09/22 02:02:46;;;;;;;21.20;20.20;;;;;;;;;;5019020;28;20515;-87
2023/09/22 02:05:14;;;;;;;21.03;19.93;;;;;;;;;;5016930;28;20411;-86
2023/09/22 02:07:42;;;;;;;19.73;18.83;;;;;;;;;;5016263;28;20484;-86
2023/09/22 02:10:11;;;;;;;22.17;20.80;;;;;;;;;;5016794;28;20963;-87
2023/09/22 02:12:38;;;;;;;20.07;19.07;;;;;;;;;;5016918;28;20484;-87
2023/09/22 02:15:09;;;;;;;20.80;19.80;;;;;;;;;;5015777;28;20472;-88
2023/09/22 02:17:36;;;;;;;20.57;19.57;;;;;;;;;;5015323;28;20440;-87
2023/09/22 02:20:11;;;;;;;21.13;20.13;;;;;;;;;;5014977;28;20471;-86
2023/09/22 02:22:38;;;;;;;20.93;19.80;;;;;;;;;;5016013;28;20446;-87
2023/09/22 02:25:05;;;;;;;19.90;18.90;;;;;;;;;;5015215;28;20456;-86
2023/09/22 02:27:32;;;;;;;20.60;19.60;;;;;;;;;;5014800;28;20438;-87
2023/09/22 02:29:59;;;;;;;20.20;19.20;;;;;;;;;;5014833;28;20471;-87
2023/09/22 02:32:28;;;;;;;21.40;20.30;;;;;;;;;;5015308;28;20472;-87
2023/09/22 02:34:55;;;;;;;21.47;20.37;;;;;;;;;;5015409;28;20456;-88
2023/09/22 02:37:23;;;;;;;20.30;19.20;;;;;;;;;;5016102;28;20490;-87
2023/09/22 02:39:50;;;;;;;21.30;20.13;;;;;;;;;;5016928;28;20531;-86
2023/09/22 02:42:17;;;;;;;21.13;20.03;;;;;;;;;;5015985;28;20843;-87
2023/09/22 02:44:44;;;;;;;21.40;20.13;;;;;;;;;;5017003;28;20525;-84
2023/09/22 02:47:11;;;;;;;20.73;19.73;;;;;;;;;;5015739;28;20467;-87
2023/09/22 02:49:45;;;;;;;20.97;19.87;;;;;;;;;;5015508;28;20792;-87
2023/09/22 02:52:12;;;;;;;21.83;20.40;;;;;;;;;;5014905;28;20500;-86
2023/09/22 02:54:39;;;;;;;22.57;21.10;;;;;;;;;;5015523;28;20477;-87
2023/09/22 03:00:14;;;;;;;22.73;21.63;;;;;;;;;;5015361;28;20387;-86
2023/09/22 03:02:42;;;;;;;23.13;21.67;;;;;;;;;;5015832;28;20457;-87
2023/09/22 03:05:14;;;;;;;22.40;21.40;;;;;;;;;;5015669;28;20430;-87
2023/09/22 03:07:41;;;;;;;23.03;21.93;;;;;;;;;;5014401;28;20447;-87
2023/09/22 03:10:10;;;;;;;22.93;21.77;;;;;;;;;;5016515;28;20455;-86
2023/09/22 03:12:37;;;;;;;24.00;22.70;;;;;;;;;;5016636;28;20510;-88
2023/09/22 03:15:04;;;;;;;23.23;21.97;;;;;;;;;;5016442;28;20427;-87
2023/09/22 03:17:32;;;;;;;22.60;21.50;;;;;;;;;;5016242;28;20423;-87
2023/09/22 03:19:59;;;;;;;23.13;22.03;;;;;;;;;;5015781;28;21147;-86
2023/09/22 03:22:28;;;;;;;22.67;21.57;;;;;;;;;;5015712;28;20543;-86
2023/09/22 03:24:55;;;;;;;23.10;21.90;;;;;;;;;;5016116;28;20450;-86
2023/09/22 03:27:23;;;;;;;23.23;22.13;;;;;;;;;;5015468;28;20407;-87
2023/09/22 03:29:50;;;;;;;23.17;21.97;;;;;;;;;;5015381;28;20431;-87
2023/09/22 03:32:18;;;;;;;23.50;22.10;;;;;;;;;;5014525;28;20475;-87
2023/09/22 03:34:47;;;;;;;23.73;22.53;;;;;;;;;;5015761;28;20439;-87
2023/09/22 03:37:14;;;;;;;23.77;22.37;;;;;;;;;;5015583;28;20448;-86
2023/09/22 03:39:43;;;;;;;25.17;23.77;;;;;;;;;;5015884;28;20419;-86
2023/09/22 03:42:13;;;;;;;23.10;21.90;;;;;;;;;;5015489;28;20834;-86
2023/09/22 03:44:40;;;;;;;22.87;21.77;;;;;;;;;;5015827;28;20415;-86
2023/09/22 03:47:07;;;;;;;24.67;23.37;;;;;;;;;;5015365;28;20457;-87
2023/09/22 03:49:34;;;;;;;22.33;21.20;;;;;;;;;;5015962;28;20418;-86
2023/09/22 03:52:02;;;;;;;23.03;21.93;;;;;;;;;;5014454;28;20462;-86
2023/09/22 03:54:29;;;;;;;22.77;21.63;;;;;;;;;;5015686;28;20419;-87
2023/09/22 03:56:57;;;;;;;24.03;22.83;;;;;;;;;;5014928;28;20492;-87
2023/09/22 03:59:24;;;;;;;23.17;21.97;;;;;;;;;;5015817;28;20448;-87
2023/09/22 04:01:51;;;;;;;22.80;21.60;;;;;;;;;;5015711;28;20449;-87
2023/09/22 04:04:18;;;;;;;22.53;21.33;;;;;;;;;;5014976;28;20750;-86
2023/09/22 04:06:46;;;;;;;22.13;20.67;;;;;;;;;;5019818;28;20782;-87
2023/09/22 04:09:13;;;;;;;22.40;21.30;;;;;;;;;;5020115;28;20433;-87
2023/09/22 04:11:40;;;;;;;23.17;21.87;;;;;;;;;;5019819;28;20454;-87
2023/09/22 04:14:09;;;;;;;22.50;21.30;;;;;;;;;;5019892;28;20448;-86
2023/09/22 04:16:36;;;;;;;22.83;21.60;;;;;;;;;;5020048;28;20429;-86
2023/09/22 04:19:03;;;;;;;22.03;20.83;;;;;;;;;;5019799;28;20422;-86
2023/09/22 04:21:31;;;;;;;22.80;21.30;;;;;;;;;;5019718;28;20444;-87
2023/09/22 04:23:58;;;;;;;21.83;20.57;;;;;;;;;;5019344;28;20973;-86
2023/09/22 04:26:29;;;;;;;22.30;21.10;;;;;;;;;;5018519;28;20457;-86
2023/09/22 04:28:56;;;;;;;22.37;21.17;;;;;;;;;;5020225;28;20416;-87
2023/09/22 04:31:26;;;;;;;22.03;20.73;;;;;;;;;;5019415;28;20575;-86
2023/09/22 04:33:54;;;;;;;22.93;21.73;;;;;;;;;;5019296;28;20980;-87
2023/09/22 04:36:22;;;;;;;22.90;21.50;;;;;;;;;;5018912;28;20771;-87
2023/09/22 04:38:50;;;;;;;22.10;20.70;;;;;;;;;;5019170;28;20490;-86
2023/09/22 04:41:19;;;;;;;21.93;20.67;;;;;;;;;;5018840;28;20443;-86
2023/09/22 04:43:46;;;;;;;21.90;20.50;;;;;;;;;;5018737;28;21043;-86
2023/09/22 04:46:15;;;;;;;23.50;22.10;;;;;;;;;;5023127;28;21396;-87
2023/09/22 04:48:46;;;;;;;22.10;20.90;;;;;;;;;;5058271;28;20457;-87
2023/09/22 04:51:20;;;;;;;23.47;21.97;;;;;;;;;;5056907;28;20478;-87
2023/09/22 04:53:47;;;;;;;24.10;22.60;;;;;;;;;;5057734;28;20503;-87
2023/09/22 04:56:14;;;;;;;23.10;21.90;;;;;;;;;;5057745;28;20397;-86
2023/09/22 04:58:41;;;;;;;22.77;21.47;;;;;;;;;;5061023;28;20450;-83
2023/09/22 05:01:08;;;;;;;22.70;21.40;;;;;;;;;;5058743;28;20422;-86
2023/09/22 05:03:35;;;;;;;22.57;21.07;;;;;;;;;;5058449;28;20478;-86
2023/09/22 05:06:09;;;;;;;22.00;20.70;;;;;;;;;;5057346;28;20491;-86
2023/09/22 05:08:37;;;;;;;22.63;21.23;;;;;;;;;;5058708;28;20417;-86
2023/09/22 05:11:05;;;;;;;22.10;20.87;;;;;;;;;;5058199;28;20873;-86
2023/09/22 05:13:32;;;;;;;21.87;20.77;;;;;;;;;;5058943;28;20462;-86
2023/09/22 05:16:08;;;;;;;22.40;21.07;;;;;;;;;;5056418;28;20489;-87
2023/09/22 05:18:35;;;;;;;22.87;21.57;;;;;;;;;;5058184;28;20460;-87
2023/09/22 05:21:02;;;;;;;22.07;20.87;;;;;;;;;;5059330;28;20828;-86
2023/09/22 05:23:32;;;;;;;23.07;21.30;;;;;;;;;;5059220;28;20485;-86
2023/09/22 05:26:00;;;;;;;23.33;22.03;;;;;;;;;;5059257;28;20401;-86
2023/09/22 05:28:27;;;;;;;23.57;22.00;;;;;;;;;;5059937;28;20463;-86
2023/09/22 05:30:54;;;;;;;23.60;22.20;;;;;;;;;;5058950;28;20430;-86
2023/09/22 05:33:21;;;;;;;23.57;22.10;;;;;;;;;;5058843;28;20441;-86
2023/09/22 05:35:49;;;;;;;23.53;21.90;;;;;;;;;;5057513;28;20433;-87
2023/09/22 05:38:16;;;;;;;23.50;22.10;;;;;;;;;;5057637;28;20421;-87
2023/09/22 05:40:45;;;;;;;23.30;22.00;;;;;;;;;;5059032;28;20428;-87
2023/09/22 05:43:14;;;;;;;24.93;23.33;;;;;;;;;;5058047;28;20809;-87
2023/09/22 05:45:41;;;;;;;23.50;22.10;;;;;;;;;;5057541;28;20428;-87
2023/09/22 05:48:09;;;;;;;24.27;22.83;;;;;;;;;;5058006;28;20948;-87
2023/09/22 05:50:36;;;;;;;25.50;23.60;;;;;;;;;;5056964;28;20949;-87
2023/09/22 05:53:04;;;;;;;24.20;22.60;;;;;;;;;;5056682;28;20457;-88
2023/09/22 05:55:33;;;;;;;24.20;22.70;;;;;;;;;;5057027;28;20417;-88
2023/09/22 05:58:01;;;;;;;24.27;22.70;;;;;;;;;;5055439;28;20440;-88
2023/09/22 06:00:31;;;;;;;24.30;22.77;;;;;;;;;;5055552;28;20955;-88
2023/09/22 06:02:58;;;;;;;28.50;25.77;;;;;;;;;;5055448;28;20536;-87
2023/09/22 06:05:29;;;;;;;25.13;23.63;;;;;;;;;;5055728;28;21115;-87
2023/09/22 06:07:56;;;;;;;24.77;23.17;;;;;;;;;;5055421;28;20474;-89
2023/09/22 06:10:24;;;;;;;24.57;23.07;;;;;;;;;;5054568;28;20437;-88
2023/09/22 06:12:51;;;;;;;24.07;22.47;;;;;;;;;;5054745;28;20876;-88
2023/09/22 06:15:20;;;;;;;24.30;22.80;;;;;;;;;;5054994;28;20838;-87
2023/09/22 06:17:48;;;;;;;24.00;22.50;;;;;;;;;;5054854;28;20437;-87
2023/09/22 06:20:16;;;;;;;23.13;21.83;;;;;;;;;;5055435;28;20430;-87
2023/09/22 06:22:43;;;;;;;22.70;21.43;;;;;;;;;;5055162;28;20469;-88
2023/09/22 06:25:13;;;;;;;21.90;20.70;;;;;;;;;;5053912;28;20452;-88
2023/09/22 06:27:40;;;;;;;22.47;20.87;;;;;;;;;;5053611;28;20436;-88
2023/09/22 06:30:11;;;;;;;21.40;20.20;;;;;;;;;;5053983;28;20487;-87
2023/09/22 06:32:41;;;;;;;21.37;20.07;;;;;;;;;;5054230;28;20457;-87
2023/09/22 06:35:10;;;;;;;22.43;20.93;;;;;;;;;;5054900;28;20422;-87
2023/09/22 06:37:37;;;;;;;21.63;20.30;;;;;;;;;;5055023;28;20425;-88
2023/09/22 06:40:10;;;;;;;21.40;20.20;;;;;;;;;;5055754;28;20771;-87
2023/09/22 06:42:38;;;;;;;20.93;19.73;;;;;;;;;;5055089;28;20516;-87
2023/09/22 06:45:05;;;;;;;21.37;20.03;;;;;;;;;;5055830;28;20785;-88
2023/09/22 06:47:34;;;;;;;21.03;19.93;;;;;;;;;;5055695;28;20452;-87
2023/09/22 06:50:06;;;;;;;21.33;20.13;;;;;;;;;;5055847;28;21245;-87
2023/09/22 06:52:33;;;;;;;21.17;20.07;;;;;;;;;;5055990;28;20544;-83
2023/09/22 06:55:01;;;;;;;21.00;19.80;;;;;;;;;;5055779;28;20438;-88
2023/09/22 06:57:28;;;;;;;20.67;19.40;;;;;;;;;;5053978;28;20425;-88
2023/09/22 06:59:56;;;;;;;21.80;20.50;;;;;;;;;;5054485;28;20439;-88
2023/09/22 07:02:23;;;;;;;21.23;19.93;;;;;;;;;;5054710;28;20441;-88
2023/09/22 07:04:53;;;;;;;21.67;19.93;;;;;;;;;;5053338;28;20429;-88
2023/09/22 07:07:22;;;;;;;21.00;19.60;;;;;;;;;;5053804;28;20397;-88
2023/09/22 07:09:49;;;;;;;19.73;18.70;;;;;;;;;;5054863;28;20414;-88
2023/09/22 07:12:16;;;;;;;20.10;19.00;;;;;;;;;;5054164;28;20490;-88
2023/09/22 07:14:43;;;;;;;20.40;19.23;;;;;;;;;;5054408;28;20455;-88
2023/09/22 07:17:10;;;;;;;19.83;18.73;;;;;;;;;;5054085;28;20798;-88
2023/09/22 07:19:39;;;;;;;19.57;18.40;;;;;;;;;;5054565;28;20450;-88
2023/09/22 07:22:08;;;;;;;18.73;17.83;;;;;;;;;;5054169;28;20469;-88
2023/09/22 07:24:36;;;;;;;18.70;17.60;;;;;;;;;;5054342;28;20421;-88
2023/09/22 07:27:04;;;;;;;19.93;18.80;;;;;;;;;;5053549;28;20406;-88
2023/09/22 07:29:31;;;;;;;20.10;19.00;;;;;;;;;;5054802;28;20934;-87
2023/09/22 07:31:58;;;;;;;19.53;18.40;;;;;;;;;;5054714;28;20544;-87
2023/09/22 07:34:25;;;;;;;19.17;18.07;;;;;;;;;;5054238;28;20440;-88
2023/09/22 07:36:53;;;;;;;18.67;17.67;;;;;;;;;;5054209;28;21152;-88
2023/09/22 07:39:21;;;;;;;19.03;17.93;;;;;;;;;;5053863;28;20463;-88
2023/09/22 07:41:49;;;;;;;18.50;17.50;;;;;;;;;;5053266;28;20456;-88
2023/09/22 07:44:21;;;;;;;18.73;17.43;;;;;;;;;;5054605;28;20435;-83
2023/09/22 07:46:48;;;;;;;19.00;18.00;;;;;;;;;;5053281;28;20487;-89
2023/09/22 07:49:16;;;;;;;18.53;17.53;;;;;;;;;;5052725;28;20429;-89
2023/09/22 07:52:02;;;;;;;18.43;17.40;;;;;;;;;;5052496;28;20456;-89
2023/09/22 07:54:31;;;;;;;19.23;18.07;;;;;;;;;;5055125;28;20419;-86
2023/09/22 07:56:59;;;;;;;19.70;18.70;;;;;;;;;;5038788;28;20566;-86
2023/09/22 07:59:35;;;;;;;18.93;17.57;;;;;;;;;;5034010;28;20426;-86
2023/09/22 08:02:03;;;;;;;17.90;17.00;;;;;;;;;;5034091;28;20466;-87
2023/09/22 08:04:34;;;;;;;18.50;17.43;;;;;;;;;;5033614;28;20422;-86
2023/09/22 08:07:05;;;;;;;18.20;17.20;;;;;;;;;;5033791;28;20405;-86
2023/09/22 08:09:33;;;;;;;18.70;17.80;;;;;;;;;;5033688;28;20815;-87
2023/09/22 08:12:04;;;;;;;18.97;17.80;;;;;;;;;;5033462;28;20466;-87
2023/09/22 08:14:31;;;;;;;18.33;17.40;;;;;;;;;;5034362;28;20403;-87
2023/09/22 08:16:58;;;;;;;19.13;18.13;;;;;;;;;;5033744;28;20903;-87
2023/09/22 08:19:25;;;;;;;18.83;17.80;;;;;;;;;;5034372;28;20426;-87
2023/09/22 08:21:52;;;;;;;18.40;17.37;;;;;;;;;;5034252;28;20452;-86
2023/09/22 08:24:19;;;;;;;18.20;17.30;;;;;;;;;;5034968;28;20501;-87
2023/09/22 08:26:47;;;;;;;18.00;17.00;;;;;;;;;;5033971;28;20498;-87
2023/09/22 08:29:15;;;;;;;18.90;17.80;;;;;;;;;;5034154;28;20974;-87
2023/09/22 08:31:42;;;;;;;18.57;17.57;;;;;;;;;;5034430;28;20940;-87
2023/09/22 08:34:11;;;;;;;19.30;18.20;;;;;;;;;;5034265;28;20466;-87
2023/09/22 08:36:38;;;;;;;17.73;16.80;;;;;;;;;;5034706;28;20449;-84
2023/09/22 08:39:07;;;;;;;19.63;18.27;;;;;;;;;;5034508;28;20429;-87
2023/09/22 08:41:37;;;;;;;18.20;17.30;;;;;;;;;;5034188;28;20422;-87
2023/09/22 08:44:04;;;;;;;18.73;17.83;;;;;;;;;;5034843;28;20459;-85
2023/09/22 08:46:34;;;;;;;18.30;17.30;;;;;;;;;;5053356;28;21113;-87
2023/09/22 08:49:01;;;;;;;19.13;17.93;;;;;;;;;;5053708;28;20971;-87
2023/09/22 08:51:28;;;;;;;17.80;16.90;;;;;;;;;;5054506;28;20453;-87
2023/09/22 08:53:55;;;;;;;19.73;18.40;;;;;;;;;;5056666;28;20856;-87
2023/09/22 08:56:23;;;;;;;18.50;17.60;;;;;;;;;;5057225;28;20781;-87
2023/09/22 08:58:56;;;;;;;19.30;18.30;;;;;;;;;;5056791;28;20522;-87
2023/09/22 09:01:24;;;;;;;18.53;17.53;;;;;;;;;;5056891;28;20417;-87
2023/09/22 09:04:09;;;;;;;19.47;18.07;;;;;;;;;;5055689;28;20441;-87
2023/09/22 09:06:46;;;;;;;18.93;17.93;;;;;;;;;;5055920;28;21001;-87
2023/09/22 09:09:13;;;;;;;19.47;18.30;;;;;;;;;;5056395;28;20514;-87
2023/09/22 09:11:58;;;;;;;19.70;18.70;;;;;;;;;;5056621;28;20990;-88
2023/09/22 09:14:28;;;;;;;18.73;17.83;;;;;;;;;;5055742;28;20458;-87
2023/09/22 09:16:56;;;;;;;18.90;17.70;;;;;;;;;;5055435;28;20433;-87
2023/09/22 09:19:28;;;;;;;18.77;17.80;;;;;;;;;;5055165;28;20810;-87
2023/09/22 09:22:07;;;;;;;19.50;18.30;;;;;;;;;;5056208;28;20427;-87
2023/09/22 09:24:34;;;;;;;19.93;18.57;;;;;;;;;;5055470;28;20441;-88
2023/09/22 09:27:02;;;;;;;19.83;18.73;;;;;;;;;;5056243;28;20450;-87
2023/09/22 09:29:29;;;;;;;20.07;19.07;;;;;;;;;;5056637;28;20583;-87
2023/09/22 09:32:00;;;;;;;19.83;18.73;;;;;;;;;;5057026;28;20409;-88
2023/09/22 09:34:39;;;;;;;19.60;18.60;;;;;;;;;;5056421;28;20453;-87
2023/09/22 09:37:13;;;;;;;19.30;18.33;;;;;;;;;;5056307;28;20469;-87
2023/09/22 09:39:47;;;;;;;19.73;18.33;;;;;;;;;;5056640;28;20454;-88
2023/09/22 09:42:18;;;;;;;19.97;18.87;;;;;;;;;;5056009;28;20941;-87
2023/09/22 09:44:49;;;;;;;20.00;18.53;;;;;;;;;;5056111;28;20433;-87
2023/09/22 09:47:22;;;;;;;19.20;18.20;;;;;;;;;;5055232;28;20483;-88
2023/09/22 09:49:51;;;;;;;19.33;18.33;;;;;;;;;;5055631;28;20417;-87
2023/09/22 09:52:21;;;;;;;19.73;18.73;;;;;;;;;;5055930;28;20426;-87
2023/09/22 09:54:51;;;;;;;20.07;19.07;;;;;;;;;;5056363;28;20744;-87
2023/09/22 09:57:19;;;;;;;21.20;19.90;;;;;;;;;;5055196;28;20440;-88
2023/09/22 09:59:47;;;;;;;20.23;19.23;;;;;;;;;;5055755;28;20425;-87
2023/09/22 10:02:15;;;;;;;21.37;20.17;;;;;;;;;;5054506;28;20463;-87
2023/09/22 10:04:43;;;;;;;20.90;19.80;;;;;;;;;;5055782;28;20420;-88
2023/09/22 10:07:22;;;;;;;20.17;18.97;;;;;;;;;;5053834;28;20436;-87
2023/09/22 10:09:50;;;;;;;19.87;18.87;;;;;;;;;;5055482;28;20423;-88
2023/09/22 10:12:17;;;;;;;19.23;18.13;;;;;;;;;;5055895;28;20430;-88
2023/09/22 10:14:44;;;;;;;20.03;18.83;;;;;;;;;;5055993;28;20409;-87
2023/09/22 10:17:21;;;;;;;19.70;18.60;;;;;;;;;;5055009;28;20508;-87
2023/09/22 10:19:48;;;;;;;20.07;19.00;;;;;;;;;;5055080;28;20894;-88
2023/09/22 10:22:15;;;;;;;21.03;19.67;;;;;;;;;;5055156;28;20440;-87
2023/09/22 10:24:44;;;;;;;20.57;19.47;;;;;;;;;;5055538;28;20410;-87
2023/09/22 10:27:11;;;;;;;20.07;19.03;;;;;;;;;;5054909;28;20493;-87
2023/09/22 10:29:43;;;;;;;20.33;19.23;;;;;;;;;;5055042;28;20406;-88
2023/09/22 10:32:21;;;;;;;21.13;19.93;;;;;;;;;;5055679;28;20450;-87
2023/09/22 10:34:49;;;;;;;21.13;19.93;;;;;;;;;;5054981;28;21037;-87
2023/09/22 10:37:17;;;;;;;20.77;19.67;;;;;;;;;;5054811;28;20422;-88
2023/09/22 10:39:53;;;;;;;21.23;20.03;;;;;;;;;;5055800;28;20426;-88
2023/09/22 10:42:20;;;;;;;22.13;20.27;;;;;;;;;;5055068;28;20444;-88
2023/09/22 10:45:01;;;;;;;21.90;20.60;;;;;;;;;;5054775;28;20499;-89
2023/09/22 10:47:39;;;;;;;20.77;19.57;;;;;;;;;;5054998;28;20431;-88
2023/09/22 10:50:12;;;;;;;21.87;20.67;;;;;;;;;;5054262;28;20962;-89
2023/09/22 10:52:39;;;;;;;20.90;19.80;;;;;;;;;;5054512;28;20454;-88
2023/09/22 10:58:12;;;;;;;20.50;19.20;;;;;;;;;;5054513;28;20420;-88
2023/09/22 11:00:42;;;;;;;20.83;19.60;;;;;;;;;;5054295;28;20450;-88
2023/09/22 11:03:13;;;;;;;21.00;19.33;;;;;;;;;;5052915;28;20458;-88
2023/09/22 11:05:41;;;;;;;21.10;19.90;;;;;;;;;;5054301;28;20443;-87
2023/09/22 11:08:13;;;;;;;22.20;21.00;;;;;;;;;;5054291;28;20483;-84
2023/09/22 11:10:41;;;;;;;20.87;19.67;;;;;;;;;;5058934;28;20420;-85
2023/09/22 11:13:09;;;;;;;21.20;19.93;;;;;;;;;;5057595;28;20496;-85
2023/09/22 11:15:46;;;;;;;20.97;19.80;;;;;;;;;;5056106;28;20405;-87
2023/09/22 11:18:20;;;;;;;21.83;20.63;;;;;;;;;;5056569;28;20425;-85
2023/09/22 11:20:48;;;;;;;21.40;20.20;;;;;;;;;;5057376;28;20442;-87
2023/09/22 11:23:16;;;;;;;22.17;20.97;;;;;;;;;;5057589;28;20513;-85
2023/09/22 11:25:43;;;;;;;22.13;20.60;;;;;;;;;;5057285;28;20453;-87
2023/09/22 11:28:10;;;;;;;22.30;21.00;;;;;;;;;;5057854;28;20429;-86
2023/09/22 11:30:39;;;;;;;21.67;20.47;;;;;;;;;;5057607;28;21210;-86
2023/09/22 11:33:15;;;;;;;21.10;19.77;;;;;;;;;;5057402;28;21292;-86
2023/09/22 11:35:42;;;;;;;21.40;20.30;;;;;;;;;;5056989;28;20425;-86
2023/09/22 11:38:26;;;;;;;22.17;20.77;;;;;;;;;;5056143;28;20413;-86
2023/09/22 11:41:02;;;;;;;22.13;20.50;;;;;;;;;;5054966;28;20454;-87
2023/09/22 11:43:29;;;;;;;22.07;20.87;;;;;;;;;;5054754;28;20549;-86
2023/09/22 11:46:06;;;;;;;21.10;19.90;;;;;;;;;;5054972;28;20442;-86
2023/09/22 11:48:51;;;;;;;21.30;20.20;;;;;;;;;;5056490;28;20876;-86
2023/09/22 11:51:18;;;;;;;22.73;21.50;;;;;;;;;;5055196;28;21315;-86
2023/09/22 11:53:45;;;;;;;21.50;20.10;;;;;;;;;;5055901;28;20486;-86
2023/09/22 11:56:19;;;;;;;21.60;20.50;;;;;;;;;;5055278;28;20432;-86
2023/09/22 11:58:46;;;;;;;21.10;19.80;;;;;;;;;;5056341;28;20451;-82
2023/09/22 12:01:14;;;;;;;21.20;19.90;;;;;;;;;;5057096;28;20454;-85
2023/09/22 12:03:41;;;;;;;22.33;21.13;;;;;;;;;;5057587;28;20442;-86
2023/09/22 12:06:21;;;;;;;22.27;20.87;;;;;;;;;;5055615;28;20962;-87
2023/09/22 12:08:48;;;;;;;21.10;20.00;;;;;;;;;;5055548;28;20448;-86
2023/09/22 12:11:15;;;;;;;21.40;20.20;;;;;;;;;;5056718;28;20435;-86
2023/09/22 12:13:43;;;;;;;21.83;20.33;;;;;;;;;;5055644;28;21005;-86
2023/09/22 12:16:11;;;;;;;22.33;21.10;;;;;;;;;;5056836;28;20393;-86
2023/09/22 12:18:39;;;;;;;21.40;20.30;;;;;;;;;;5056809;28;20960;-85
2023/09/22 12:21:06;;;;;;;21.60;20.50;;;;;;;;;;5057351;28;20443;-85
2023/09/22 12:23:34;;;;;;;22.03;20.73;;;;;;;;;;5057440;28;20459;-86
2023/09/22 12:26:01;;;;;;;21.63;20.43;;;;;;;;;;5038122;28;20463;-86
2023/09/22 12:28:28;;;;;;;21.30;20.10;;;;;;;;;;5039454;28;20422;-86
2023/09/22 12:30:55;;;;;;;21.60;20.40;;;;;;;;;;5038437;28;20455;-86
2023/09/22 12:33:29;;;;;;;21.03;19.93;;;;;;;;;;5038804;28;20953;-86
2023/09/22 12:35:58;;;;;;;20.80;19.70;;;;;;;;;;5037610;28;20445;-86
2023/09/22 12:38:25;;;;;;;21.50;20.40;;;;;;;;;;5039221;28;20447;-85
2023/09/22 12:40:52;;;;;;;21.50;20.40;;;;;;;;;;5039197;28;20418;-86
2023/09/22 12:43:19;;;;;;;22.10;20.90;;;;;;;;;;5039270;28;20457;-86
2023/09/22 12:45:46;;;;;;;21.90;20.73;;;;;;;;;;5037976;28;20478;-87
2023/09/22 12:48:13;;;;;;;21.63;20.40;;;;;;;;;;5039002;28;20439;-86
2023/09/22 12:50:40;;;;;;;21.20;20.10;;;;;;;;;;5038733;28;20441;-86
2023/09/22 12:53:11;;;;;;;21.40;20.20;;;;;;;;;;5040054;28;21011;-85
2023/09/22 12:55:38;;;;;;;20.90;19.83;;;;;;;;;;5039603;28;20447;-85
2023/09/22 12:58:06;;;;;;;21.43;20.33;;;;;;;;;;5039956;28;20420;-86
2023/09/22 13:00:39;;;;;;;21.30;20.20;;;;;;;;;;5040709;28;21232;-86
2023/09/22 13:03:06;;;;;;;21.73;20.63;;;;;;;;;;5042255;28;20475;-85
2023/09/22 13:05:34;;;;;;;21.40;20.20;;;;;;;;;;5041527;28;20422;-85
2023/09/22 13:08:01;;;;;;;20.77;19.57;;;;;;;;;;5041213;28;20911;-85
2023/09/22 13:10:32;;;;;;;20.47;19.47;;;;;;;;;;5041530;28;20456;-85
2023/09/22 13:12:59;;;;;;;21.73;20.37;;;;;;;;;;5040334;28;20491;-85
2023/09/22 13:15:26;;;;;;;21.83;20.63;;;;;;;;;;5041019;28;20491;-85
2023/09/22 13:17:53;;;;;;;21.83;20.63;;;;;;;;;;5040454;28;20440;-85
2023/09/22 13:20:21;;;;;;;21.50;20.30;;;;;;;;;;5040067;28;20443;-84
2023/09/22 13:22:48;;;;;;;21.83;20.53;;;;;;;;;;5039978;28;20472;-82
2023/09/22 13:25:15;;;;;;;22.20;21.10;;;;;;;;;;5038194;28;20427;-84
2023/09/22 13:27:44;;;;;;;21.33;20.23;;;;;;;;;;5037985;28;20440;-83
2023/09/22 13:30:12;;;;;;;21.03;19.93;;;;;;;;;;5038447;28;20964;-84
2023/09/22 13:32:39;;;;;;;21.20;20.10;;;;;;;;;;5040271;28;20959;-84
2023/09/22 13:35:07;;;;;;;20.00;18.90;;;;;;;;;;5040965;28;20555;-84
2023/09/22 13:37:34;;;;;;;20.37;19.30;;;;;;;;;;5039000;28;20451;-83
2023/09/22 13:40:01;;;;;;;20.30;19.10;;;;;;;;;;5039185;28;20440;-84
2023/09/22 13:42:28;;;;;;;21.23;20.03;;;;;;;;;;5038046;28;20461;-85
2023/09/22 13:44:57;;;;;;;21.20;20.10;;;;;;;;;;5038202;28;20509;-84
2023/09/22 13:47:24;;;;;;;20.90;19.67;;;;;;;;;;5037444;28;20775;-82
2023/09/22 13:49:52;;;;;;;22.07;20.97;;;;;;;;;;5037902;28;20437;-83
2023/09/22 13:52:19;;;;;;;22.03;20.73;;;;;;;;;;5057030;28;21009;-84
2023/09/22 13:54:46;;;;;;;21.87;20.77;;;;;;;;;;5057957;28;20453;-84
2023/09/22 13:57:13;;;;;;;21.20;20.00;;;;;;;;;;5057688;28;20439;-83
2023/09/22 13:59:40;;;;;;;22.90;21.60;;;;;;;;;;5057788;28;20437;-84
2023/09/22 14:02:09;;;;;;;22.37;21.07;;;;;;;;;;5057213;28;20487;-83
2023/09/22 14:04:36;;;;;;;21.50;20.17;;;;;;;;;;5057201;28;20467;-84
2023/09/22 14:07:03;;;;;;;20.43;19.33;;;;;;;;;;5056798;28;20424;-83
2023/09/22 14:09:31;;;;;;;22.27;20.70;;;;;;;;;;5058010;28;20457;-83
2023/09/22 14:11:58;;;;;;;22.73;21.43;;;;;;;;;;5056902;28;20507;-84
2023/09/22 14:14:25;;;;;;;21.93;20.70;;;;;;;;;;5058268;28;20441;-85
2023/09/22 14:16:52;;;;;;;21.03;19.93;;;;;;;;;;5057766;28;20497;-86
2023/09/22 14:19:20;;;;;;;21.67;20.57;;;;;;;;;;5058279;28;20435;-86
2023/09/22 14:21:48;;;;;;;21.30;20.20;;;;;;;;;;5057958;28;20458;-86
2023/09/22 14:24:16;;;;;;;22.00;20.80;;;;;;;;;;5058245;28;20417;-85
2023/09/22 14:26:43;;;;;;;22.20;21.00;;;;;;;;;;5058045;28;20543;-86
2023/09/22 14:29:11;;;;;;;22.17;20.97;;;;;;;;;;5058359;28;20456;-86
2023/09/22 14:31:38;;;;;;;22.73;21.43;;;;;;;;;;5051332;28;20516;-86